createdAt,value
2023-06-06T00:01:21.453Z,6.47
2023-06-06T00:03:50.505Z,6.32
2023-06-06T00:06:22.041Z,6.53
2023-06-06T00:08:53.996Z,6.95
2023-06-06T00:11:21.872Z,5.82
2023-06-06T00:13:51.653Z,7.15
2023-06-06T00:16:18.682Z,6.05
2023-06-06T00:18:54.137Z,7.05
2023-06-06T00:21:22.501Z,7.35
2023-06-06T00:23:50.306Z,6.88
2023-06-06T00:26:17.114Z,7.47
2023-06-06T00:31:14.637Z,6.72
2023-06-06T00:33:41.370Z,7.18
2023-06-06T00:36:08.467Z,6.82
2023-06-06T00:38:35.217Z,7.20
2023-06-06T00:41:01.953Z,7.00
2023-06-06T00:43:28.690Z,7.50
2023-06-06T00:45:56.465Z,7.20
2023-06-06T00:48:24.254Z,6.90
2023-06-06T00:50:51.561Z,7.63
2023-06-06T00:53:18.576Z,7.75
2023-06-06T00:55:46.397Z,7.18
2023-06-06T00:58:13.972Z,6.90
2023-06-06T01:00:41.581Z,7.50
2023-06-06T01:03:15.603Z,7.20
2023-06-06T01:05:43.557Z,7.68
2023-06-06T01:08:13.210Z,8.13
2023-06-06T01:10:41.609Z,7.82
2023-06-06T01:13:29.603Z,8.25
2023-06-06T01:16:01.144Z,7.85
2023-06-06T01:18:28.883Z,7.70
2023-06-06T01:20:56.295Z,7.80
2023-06-06T01:23:24.977Z,8.10
2023-06-06T01:25:51.878Z,7.68
2023-06-06T01:28:18.974Z,8.25
2023-06-06T01:30:47.164Z,8.43
2023-06-06T01:33:39.960Z,7.90
2023-06-06T01:36:22.155Z,8.85
2023-06-06T01:38:54.815Z,8.00
2023-06-06T01:41:23.699Z,8.57
2023-06-06T01:43:55.414Z,8.07
2023-06-06T01:46:25.583Z,8.75
2023-06-06T01:48:53.979Z,8.27
2023-06-06T01:51:21.172Z,8.50
2023-06-06T01:53:48.142Z,8.15
2023-06-06T01:56:15.170Z,7.90
2023-06-06T01:58:43.598Z,8.03
2023-06-06T02:01:10.876Z,7.78
2023-06-06T02:03:38.242Z,8.98
2023-06-06T02:06:06.271Z,8.23
2023-06-06T02:08:33.275Z,8.32
2023-06-06T02:11:00.153Z,8.60
2023-06-06T02:13:27.214Z,7.28
2023-06-06T02:15:53.979Z,7.05
2023-06-06T02:18:21.154Z,7.15
2023-06-06T02:20:48.089Z,7.57
2023-06-06T02:23:15.347Z,7.90
2023-06-06T02:25:42.034Z,8.30
2023-06-06T02:28:09.478Z,8.63
2023-06-06T02:30:36.361Z,8.43
2023-06-06T02:33:03.720Z,7.78
2023-06-06T02:35:30.611Z,8.02
2023-06-06T02:37:57.442Z,8.05
2023-06-06T02:40:24.301Z,7.97
2023-06-06T02:42:51.097Z,7.95
2023-06-06T02:45:17.984Z,8.52
2023-06-06T02:47:46.156Z,8.15
2023-06-06T02:50:12.928Z,8.68
2023-06-06T02:52:42.271Z,8.25
2023-06-06T02:55:09.692Z,8.45
2023-06-06T02:57:37.604Z,9.05
2023-06-06T03:00:09.904Z,8.38
2023-06-06T03:02:37.050Z,8.15
2023-06-06T03:05:04.705Z,8.65
2023-06-06T03:07:31.927Z,7.72
2023-06-06T03:09:58.874Z,8.43
2023-06-06T03:12:32.079Z,8.57
2023-06-06T03:14:59.750Z,9.80
2023-06-06T03:17:33.726Z,7.63
2023-06-06T03:20:00.698Z,9.13
2023-06-06T03:22:29.310Z,8.13
2023-06-06T03:24:57.328Z,7.55
2023-06-06T03:27:24.827Z,9.03
2023-06-06T03:29:54.198Z,8.65
2023-06-06T03:32:24.543Z,8.45
2023-06-06T03:34:52.774Z,8.23
2023-06-06T03:37:19.572Z,9.07
2023-06-06T03:39:46.890Z,8.80
2023-06-06T03:42:14.453Z,8.90
2023-06-06T03:44:43.703Z,9.38
2023-06-06T03:47:11.868Z,9.73
2023-06-06T03:49:38.715Z,8.85
2023-06-06T03:52:06.908Z,9.77
2023-06-06T03:54:37.787Z,10.00
2023-06-06T03:57:09.800Z,9.20
2023-06-06T03:59:36.682Z,9.52
2023-06-06T04:02:04.202Z,9.90
2023-06-06T04:04:32.190Z,10.68
2023-06-06T04:06:59.780Z,10.32
2023-06-06T04:09:28.948Z,10.23
2023-06-06T04:11:55.855Z,10.68
2023-06-06T04:14:24.710Z,10.00
2023-06-06T04:16:51.891Z,10.90
2023-06-06T04:19:19.571Z,11.23
2023-06-06T04:21:49.411Z,11.55
2023-06-06T04:24:16.307Z,11.45
2023-06-06T04:26:43.210Z,11.85
2023-06-06T04:29:14.389Z,11.63
2023-06-06T04:31:42.593Z,10.82
2023-06-06T04:34:13.693Z,12.40
2023-06-06T04:36:41.305Z,12.53
2023-06-06T04:39:10.439Z,13.23
2023-06-06T04:44:08.209Z,13.30
2023-06-06T04:46:35.102Z,12.93
2023-06-06T04:49:02.620Z,13.20
2023-06-06T04:51:31.131Z,12.68
2023-06-06T04:53:59.975Z,12.37
2023-06-06T04:56:29.984Z,12.20
2023-06-06T04:59:07.849Z,13.02
2023-06-06T05:01:38.308Z,12.48
2023-06-06T05:04:06.280Z,12.65
2023-06-06T05:09:05.428Z,11.70
2023-06-06T05:13:58.966Z,11.75
2023-06-06T05:16:26.356Z,12.73
2023-06-06T05:18:53.223Z,12.57
2023-06-06T05:21:20.897Z,12.15
2023-06-06T05:23:47.987Z,11.45
2023-06-06T05:26:14.729Z,12.10
2023-06-06T05:28:41.527Z,11.23
2023-06-06T05:31:09.207Z,11.10
2023-06-06T05:33:41.867Z,11.70
2023-06-06T05:36:08.803Z,11.27
2023-06-06T05:38:35.453Z,11.25
2023-06-06T05:41:02.130Z,11.18
2023-06-06T05:43:31.780Z,10.75
2023-06-06T05:45:59.011Z,11.10
2023-06-06T05:48:25.851Z,11.07
2023-06-06T05:50:52.769Z,10.57
2023-06-06T05:53:19.559Z,10.68
2023-06-06T05:55:46.304Z,10.50
2023-06-06T05:58:13.019Z,9.68
2023-06-06T06:00:39.791Z,10.15
2023-06-06T06:03:09.103Z,9.57
2023-06-06T06:05:36.507Z,9.82
2023-06-06T06:08:04.251Z,10.13
2023-06-06T06:10:38.130Z,10.70
2023-06-06T06:13:06.586Z,10.60
2023-06-06T06:15:35.645Z,10.10
2023-06-06T06:18:04.223Z,10.10
2023-06-06T06:20:31.003Z,9.70
2023-06-06T06:22:57.735Z,8.90
2023-06-06T06:25:24.511Z,9.70
2023-06-06T06:27:52.140Z,10.05
2023-06-06T06:30:19.827Z,9.50
2023-06-06T06:32:47.240Z,9.90
2023-06-06T06:35:16.662Z,9.50
2023-06-06T06:40:23.143Z,9.55
2023-06-06T06:42:52.998Z,9.88
2023-06-06T06:45:29.680Z,8.90
2023-06-06T06:47:56.619Z,9.00
2023-06-06T06:50:23.365Z,8.52
2023-06-06T06:52:50.296Z,8.30
2023-06-06T06:55:18.008Z,9.02
2023-06-06T06:57:46.159Z,8.55
2023-06-06T07:00:14.954Z,8.55
2023-06-06T07:02:45.894Z,8.82
2023-06-06T07:05:13.521Z,8.80
2023-06-06T07:07:45.223Z,8.65
2023-06-06T07:10:15.347Z,8.27
2023-06-06T07:12:42.884Z,8.27
2023-06-06T07:15:10.285Z,8.25
2023-06-06T07:17:37.011Z,7.85
2023-06-06T07:20:06.357Z,8.88
2023-06-06T07:22:37.257Z,8.75
2023-06-06T07:25:07.418Z,7.57
2023-06-06T07:27:36.388Z,7.35
2023-06-06T07:30:04.870Z,7.72
2023-06-06T07:32:32.252Z,7.95
2023-06-06T07:34:59.075Z,8.32
2023-06-06T07:37:25.703Z,8.02
2023-06-06T07:39:52.785Z,7.50
2023-06-06T07:42:21.577Z,7.65
2023-06-06T07:44:49.362Z,7.97
2023-06-06T07:47:16.313Z,7.10
2023-06-06T07:49:44.449Z,8.10
2023-06-06T07:52:12.286Z,7.72
2023-06-06T07:54:39.237Z,6.88
2023-06-06T07:57:09.102Z,7.75
2023-06-06T07:59:35.942Z,6.97
2023-06-06T08:02:03.034Z,6.90
2023-06-06T08:04:30.170Z,7.00
2023-06-06T08:06:57.186Z,7.45
2023-06-06T08:09:23.908Z,7.20
2023-06-06T08:11:50.924Z,7.38
2023-06-06T08:14:17.687Z,6.85
2023-06-06T08:16:44.508Z,6.35
2023-06-06T08:19:11.284Z,7.20
2023-06-06T08:21:38.338Z,6.78
2023-06-06T08:24:05.256Z,8.02
2023-06-06T08:26:32.611Z,6.68
2023-06-06T08:28:59.619Z,6.05
2023-06-06T08:31:26.590Z,6.32
2023-06-06T08:33:53.615Z,7.13
2023-06-06T08:36:20.445Z,6.32
2023-06-06T08:38:47.153Z,6.72
2023-06-06T08:41:17.948Z,6.47
2023-06-06T08:43:47.730Z,6.30
2023-06-06T08:46:16.476Z,6.28
2023-06-06T08:48:44.815Z,5.90
2023-06-06T08:51:13.759Z,5.18
2023-06-06T08:53:43.335Z,5.63
2023-06-06T08:56:12.800Z,5.57
2023-06-06T08:58:41.790Z,5.70
2023-06-06T09:01:12.861Z,5.65
2023-06-06T09:03:44.749Z,6.22
2023-06-06T09:06:13.190Z,5.20
2023-06-06T09:08:41.100Z,5.10
2023-06-06T09:11:07.901Z,5.15
2023-06-06T09:13:34.610Z,4.40
2023-06-06T09:16:04.687Z,5.25
2023-06-06T09:18:33.364Z,4.72
2023-06-06T09:21:00.203Z,5.03
2023-06-06T09:23:31.571Z,4.70
2023-06-06T09:25:59.089Z,4.68
2023-06-06T09:28:40.056Z,5.05
2023-06-06T09:31:38.428Z,5.22
2023-06-06T09:34:09.781Z,4.90
2023-06-06T09:36:41.501Z,5.05
2023-06-06T09:39:14.310Z,4.50
2023-06-06T09:41:41.967Z,5.57
2023-06-06T09:44:21.796Z,5.43
2023-06-06T09:46:58.480Z,5.28
2023-06-06T09:49:25.387Z,5.05
2023-06-06T09:51:55.297Z,4.90
2023-06-06T09:54:24.721Z,4.47
2023-06-06T09:56:53.301Z,4.70
2023-06-06T09:59:22.396Z,4.40
2023-06-06T10:01:54.949Z,4.35
2023-06-06T10:04:22.329Z,4.93
2023-06-06T10:06:50.416Z,4.68
2023-06-06T10:09:17.738Z,4.78
2023-06-06T10:11:44.894Z,4.50
2023-06-06T10:14:12.162Z,4.85
2023-06-06T10:16:40.264Z,4.55
2023-06-06T10:19:09.417Z,4.40
2023-06-06T10:21:37.854Z,4.65
2023-06-06T10:24:05.218Z,5.25
2023-06-06T10:27:01.661Z,5.35
2023-06-06T10:29:49.966Z,4.70
2023-06-06T10:32:26.310Z,4.15
2023-06-06T10:34:56.297Z,5.28
2023-06-06T10:37:23.383Z,5.15
2023-06-06T10:40:01.392Z,5.00
2023-06-06T10:42:41.425Z,4.60
2023-06-06T10:45:08.710Z,4.60
2023-06-06T10:47:39.905Z,4.47
2023-06-06T10:50:12.761Z,4.43
2023-06-06T10:53:00.804Z,4.65
2023-06-06T10:55:27.861Z,4.53
2023-06-06T10:58:06.745Z,4.55
2023-06-06T11:00:40.853Z,4.60
2023-06-06T11:03:09.638Z,4.60
2023-06-06T11:06:01.163Z,4.53
2023-06-06T11:08:38.065Z,4.32
2023-06-06T11:11:16.962Z,4.15
2023-06-06T11:14:09.911Z,4.05
2023-06-06T11:16:40.041Z,3.58
2023-06-06T11:19:10.086Z,3.63
2023-06-06T11:21:37.970Z,4.28
2023-06-06T11:24:10.670Z,5.10
2023-06-06T11:26:40.230Z,4.43
2023-06-06T11:29:10.746Z,3.53
2023-06-06T11:31:39.608Z,4.10
2023-06-06T11:34:11.825Z,4.22
2023-06-06T11:36:43.810Z,4.00
2023-06-06T11:39:13.320Z,3.58
2023-06-06T11:41:45.501Z,3.78
2023-06-06T11:44:13.268Z,3.65
2023-06-06T11:46:46.717Z,3.58
2023-06-06T11:49:13.503Z,3.90
2023-06-06T11:51:40.308Z,3.95
2023-06-06T11:54:20.727Z,3.58
2023-06-06T11:56:53.411Z,4.07
2023-06-06T11:59:21.524Z,3.92
2023-06-06T12:01:54.101Z,3.67
2023-06-06T12:04:22.290Z,3.72
2023-06-06T12:06:51.821Z,3.25
2023-06-06T12:09:19.728Z,3.53
2023-06-06T12:11:56.439Z,3.42
2023-06-06T12:14:25.279Z,3.70
2023-06-06T12:16:53.468Z,3.80
2023-06-06T12:19:20.984Z,3.83
2023-06-06T12:21:49.966Z,3.90
2023-06-06T12:24:21.243Z,3.92
2023-06-06T12:26:57.274Z,3.55
2023-06-06T12:29:28.035Z,3.67
2023-06-06T12:32:17.474Z,3.58
2023-06-06T12:34:51.648Z,3.08
2023-06-06T12:37:19.105Z,3.67
2023-06-06T12:39:47.278Z,3.40
2023-06-06T12:42:19.514Z,3.08
2023-06-06T12:44:48.209Z,3.42
2023-06-06T12:47:16.517Z,3.55
2023-06-06T12:49:44.047Z,3.28
2023-06-06T12:52:12.786Z,2.85
2023-06-06T12:54:42.913Z,3.13
2023-06-06T12:57:11.385Z,3.42
2023-06-06T12:59:43.912Z,3.28
2023-06-06T13:02:12.041Z,3.20
2023-06-06T13:04:40.908Z,2.77
2023-06-06T13:07:14.449Z,3.45
2023-06-06T13:09:41.722Z,3.05
2023-06-06T13:12:10.231Z,3.35
2023-06-06T13:14:38.633Z,2.97
2023-06-06T13:17:12.985Z,3.38
2023-06-06T13:19:41.288Z,2.92
2023-06-06T13:22:08.602Z,2.80
2023-06-06T13:24:35.632Z,3.15
2023-06-06T13:27:02.641Z,3.25
2023-06-06T13:29:29.504Z,3.30
2023-06-06T13:31:56.531Z,3.22
2023-06-06T13:34:23.600Z,2.97
2023-06-06T13:36:50.371Z,3.10
2023-06-06T13:39:17.139Z,3.38
2023-06-06T13:41:44.226Z,2.85
2023-06-06T13:44:17.935Z,3.28
2023-06-06T13:46:59.608Z,2.70
2023-06-06T13:49:27.985Z,3.10
2023-06-06T13:51:54.965Z,2.95
2023-06-06T13:54:22.049Z,3.00
2023-06-06T13:56:53.137Z,3.03
2023-06-06T13:59:21.362Z,3.15
2023-06-06T14:01:50.227Z,3.08
2023-06-06T14:04:17.415Z,2.67
2023-06-06T14:06:44.665Z,2.88
2023-06-06T14:09:15.525Z,2.88
2023-06-06T14:11:45.566Z,2.92
2023-06-06T14:14:13.795Z,2.78
2023-06-06T14:16:40.754Z,2.88
2023-06-06T14:19:15.224Z,2.97
2023-06-06T14:21:42.878Z,3.03
2023-06-06T14:24:10.973Z,2.90
2023-06-06T14:26:37.986Z,2.70
2023-06-06T14:29:04.776Z,3.10
2023-06-06T14:31:33.224Z,3.60
2023-06-06T14:33:59.985Z,3.17
2023-06-06T14:36:26.957Z,3.00
2023-06-06T14:38:53.695Z,3.33
2023-06-06T14:41:20.567Z,2.90
2023-06-06T14:43:48.285Z,2.60
2023-06-06T14:46:15.884Z,3.30
2023-06-06T14:48:46.800Z,3.00
2023-06-06T14:51:14.075Z,3.17
2023-06-06T14:53:40.768Z,3.30
2023-06-06T14:56:09.976Z,3.15
2023-06-06T15:01:03.891Z,3.03
2023-06-06T15:03:31.067Z,3.47
2023-06-06T15:05:58.076Z,2.72
2023-06-06T15:08:24.829Z,2.95
2023-06-06T15:10:51.614Z,2.83
2023-06-06T15:13:19.423Z,3.03
2023-06-06T15:15:46.258Z,3.00
2023-06-06T15:18:13.188Z,2.88
2023-06-06T15:20:39.951Z,2.78
2023-06-06T15:23:08.339Z,3.10
2023-06-06T15:25:35.344Z,2.80
2023-06-06T15:28:02.458Z,3.00
2023-06-06T15:30:29.207Z,2.55
2023-06-06T15:32:56.078Z,3.25
2023-06-06T15:35:22.967Z,2.97
2023-06-06T15:37:49.758Z,2.83
2023-06-06T15:40:17.116Z,2.92
2023-06-06T15:42:43.899Z,2.97
2023-06-06T15:45:11.038Z,2.80
2023-06-06T15:47:38.074Z,3.00
2023-06-06T15:50:05.629Z,3.13
2023-06-06T15:52:32.358Z,2.75
2023-06-06T15:54:59.529Z,3.20
2023-06-06T15:57:26.540Z,3.08
2023-06-06T15:59:58.297Z,2.55
2023-06-06T16:02:25.058Z,2.83
2023-06-06T16:04:51.778Z,2.83
2023-06-06T16:07:18.526Z,2.88
2023-06-06T16:09:45.368Z,2.85
2023-06-06T16:12:12.273Z,2.70
2023-06-06T16:14:39.064Z,3.00
2023-06-06T16:17:09.065Z,3.00
2023-06-06T16:19:35.874Z,2.92
2023-06-06T16:22:02.721Z,2.80
2023-06-06T16:24:29.433Z,2.90
2023-06-06T16:26:56.163Z,2.70
2023-06-06T16:29:23.124Z,2.72
2023-06-06T16:31:50.031Z,2.90
2023-06-06T16:34:16.913Z,2.28
2023-06-06T16:36:45.028Z,2.90
2023-06-06T16:39:13.185Z,2.67
2023-06-06T16:41:40.820Z,2.80
2023-06-06T16:44:12.103Z,3.00
2023-06-06T16:46:40.483Z,2.83
2023-06-06T16:49:07.516Z,2.95
2023-06-06T16:51:34.234Z,3.15
2023-06-06T16:54:01.913Z,3.10
2023-06-06T16:56:28.788Z,2.95
2023-06-06T16:58:55.653Z,2.67
2023-06-06T17:01:22.717Z,2.97
2023-06-06T17:03:50.134Z,3.22
2023-06-06T17:06:17.374Z,2.92
2023-06-06T17:08:44.355Z,2.60
2023-06-06T17:11:12.421Z,2.90
2023-06-06T17:13:39.140Z,3.13
2023-06-06T17:16:06.008Z,2.42
2023-06-06T17:18:32.788Z,2.50
2023-06-06T17:21:01.243Z,2.60
2023-06-06T17:23:28.050Z,3.10
2023-06-06T17:25:54.825Z,3.20
2023-06-06T17:28:21.773Z,4.05
2023-06-06T17:30:51.238Z,4.35
2023-06-06T17:33:18.432Z,3.53
2023-06-06T17:35:45.212Z,3.55
2023-06-06T17:38:12.260Z,3.78
2023-06-06T17:40:38.977Z,3.83
2023-06-06T17:43:05.933Z,3.22
2023-06-06T17:45:32.656Z,2.78
2023-06-06T17:47:59.587Z,3.25
2023-06-06T17:50:28.865Z,3.15
2023-06-06T17:52:56.956Z,3.53
2023-06-06T17:55:23.996Z,2.85
2023-06-06T17:57:50.776Z,2.70
2023-06-06T18:00:18.372Z,3.03
2023-06-06T18:02:45.623Z,3.35
2023-06-06T18:05:27.887Z,2.90
2023-06-06T18:07:59.382Z,3.22
2023-06-06T18:10:27.165Z,3.20
2023-06-06T18:12:56.065Z,3.03
2023-06-06T18:15:23.564Z,3.08
2023-06-06T18:17:51.999Z,3.00
2023-06-06T18:20:18.882Z,3.33
2023-06-06T18:22:45.687Z,3.17
2023-06-06T18:25:13.494Z,3.10
2023-06-06T18:27:40.483Z,3.50
2023-06-06T18:30:15.071Z,3.42
2023-06-06T18:32:42.392Z,2.90
2023-06-06T18:35:13.156Z,3.10
2023-06-06T18:37:46.562Z,3.08
2023-06-06T18:40:20.426Z,3.55
2023-06-06T18:42:51.233Z,3.35
2023-06-06T18:45:18.284Z,3.85
2023-06-06T18:47:46.020Z,3.63
2023-06-06T18:50:15.012Z,4.32
2023-06-06T18:52:41.863Z,3.50
2023-06-06T18:55:09.346Z,3.45
2023-06-06T18:57:36.175Z,3.20
2023-06-06T19:00:06.515Z,3.28
2023-06-06T19:02:51.841Z,3.42
2023-06-06T19:05:29.789Z,3.30
2023-06-06T19:08:15.917Z,3.65
2023-06-06T19:11:04.363Z,3.58
2023-06-06T19:13:43.780Z,3.53
2023-06-06T19:16:27.467Z,3.23
2023-06-06T19:19:04.399Z,3.30
2023-06-06T19:21:40.886Z,3.58
2023-06-06T19:24:14.536Z,3.53
2023-06-06T19:26:51.161Z,3.80
2023-06-06T19:29:26.951Z,3.90
2023-06-06T19:32:05.536Z,4.40
2023-06-06T19:34:35.534Z,4.22
2023-06-06T19:37:02.298Z,4.65
2023-06-06T19:39:28.989Z,5.03
2023-06-06T19:41:55.866Z,5.50
2023-06-06T19:44:22.809Z,5.13
2023-06-06T19:46:49.603Z,5.15
2023-06-06T19:49:16.611Z,5.05
2023-06-06T19:51:43.375Z,5.00
2023-06-06T19:54:10.124Z,5.20
2023-06-06T19:56:36.766Z,5.70
2023-06-06T19:59:03.618Z,6.15
2023-06-06T20:01:30.787Z,5.32
2023-06-06T20:03:57.704Z,6.20
2023-06-06T20:06:25.427Z,6.38
2023-06-06T20:08:52.226Z,5.50
2023-06-06T20:11:18.924Z,5.22
2023-06-06T20:13:45.702Z,5.35
2023-06-06T20:16:12.668Z,5.10
2023-06-06T20:18:39.443Z,6.28
2023-06-06T20:21:08.808Z,6.18
2023-06-06T20:26:04.795Z,4.88
2023-06-06T20:28:33.957Z,5.65
2023-06-06T20:31:03.143Z,5.45
2023-06-06T20:33:29.929Z,5.10
2023-06-06T20:35:58.978Z,5.28
2023-06-06T20:38:25.965Z,5.05
2023-06-06T20:40:53.532Z,5.13
2023-06-06T20:43:24.807Z,5.28
2023-06-06T20:45:52.795Z,6.22
2023-06-06T20:48:20.023Z,5.05
2023-06-06T20:50:47.033Z,5.80
2023-06-06T20:53:13.919Z,5.10
2023-06-06T20:55:42.281Z,5.22
2023-06-06T20:58:09.180Z,5.23
2023-06-06T21:00:36.200Z,5.30
2023-06-06T21:03:03.226Z,5.03
2023-06-06T21:05:30.103Z,5.10
2023-06-06T21:07:56.819Z,5.18
2023-06-06T21:10:24.020Z,4.75
2023-06-06T21:12:50.776Z,5.18
2023-06-06T21:15:17.589Z,5.07
2023-06-06T21:17:44.647Z,5.47
2023-06-06T21:20:12.553Z,5.45
2023-06-06T21:22:39.558Z,5.38
2023-06-06T21:25:06.771Z,5.63
2023-06-06T21:27:33.560Z,5.60
2023-06-06T21:30:01.072Z,4.95
2023-06-06T21:32:28.132Z,5.90
2023-06-06T21:34:54.911Z,5.25
2023-06-06T21:37:25.591Z,5.40
2023-06-06T21:39:52.385Z,5.38
2023-06-06T21:42:19.114Z,5.20
2023-06-06T21:44:45.966Z,5.15
2023-06-06T21:47:12.970Z,5.85
2023-06-06T21:49:43.584Z,5.82
2023-06-06T21:52:11.028Z,5.32
2023-06-06T21:54:37.858Z,5.95
2023-06-06T21:57:04.929Z,5.90
2023-06-06T21:59:31.638Z,4.78
2023-06-06T22:01:59.393Z,5.40
2023-06-06T22:04:26.196Z,5.22
2023-06-06T22:06:52.930Z,5.57
2023-06-06T22:09:19.800Z,5.28
2023-06-06T22:11:46.582Z,4.68
2023-06-06T22:14:13.309Z,5.72
2023-06-06T22:16:40.155Z,5.18
2023-06-06T22:19:06.962Z,5.57
2023-06-06T22:21:33.621Z,5.43
2023-06-06T22:24:00.657Z,5.25
2023-06-06T22:26:28.020Z,4.75
2023-06-06T22:28:55.000Z,5.22
2023-06-06T22:31:21.787Z,5.10
2023-06-06T22:33:48.599Z,5.63
2023-06-06T22:36:16.013Z,5.55
2023-06-06T22:38:42.725Z,5.43
2023-06-06T22:41:09.983Z,5.53
2023-06-06T22:43:36.920Z,5.47
2023-06-06T22:46:03.751Z,5.43
2023-06-06T22:48:30.702Z,5.60
2023-06-06T22:50:57.440Z,5.20
2023-06-06T22:53:25.530Z,5.32
2023-06-06T22:55:52.297Z,5.38
2023-06-06T22:58:19.228Z,5.55
2023-06-06T23:00:46.030Z,4.80
2023-06-06T23:03:12.997Z,5.40
2023-06-06T23:05:39.819Z,5.75
2023-06-06T23:08:07.148Z,5.80
2023-06-06T23:10:33.927Z,5.63
2023-06-06T23:13:00.798Z,5.60
2023-06-06T23:15:28.311Z,5.90
2023-06-06T23:17:55.295Z,5.95
2023-06-06T23:20:22.654Z,5.80
2023-06-06T23:22:49.530Z,5.63
2023-06-06T23:25:16.653Z,5.47
2023-06-06T23:27:43.466Z,5.75
2023-06-06T23:30:11.782Z,5.13
2023-06-06T23:32:38.838Z,5.35
2023-06-06T23:35:06.115Z,5.55
2023-06-06T23:37:32.868Z,5.43
2023-06-06T23:39:59.887Z,5.45
2023-06-06T23:42:26.809Z,5.90
2023-06-06T23:44:55.764Z,5.78
2023-06-06T23:47:22.735Z,4.80
2023-06-06T23:49:49.458Z,5.20
2023-06-06T23:52:16.356Z,4.93
2023-06-06T23:54:43.107Z,5.40
2023-06-06T23:57:09.727Z,5.03
2023-06-06T23:59:36.594Z,5.25
